ADDS METAR Data INFO
IDs: Format: Raw Decoded Include TAF

Data at: 0353 UTC 18 Oct 2017

K7W4 180335Z AUTO 00000KT 10SM CLR 05/05 A3035 RMK AO1 T00460046
K7W4 180315Z AUTO 00000KT 10SM CLR 05/05 A3035 RMK AO1 T00540049
K7W4 180255Z AUTO 00000KT 10SM CLR 05/05 A3035 RMK AO1 T00540052
K7W4 180235Z AUTO 19003KT 10SM CLR 06/05 A3035 RMK AO1 T00580054
K7W4 180215Z AUTO 00000KT 10SM CLR 06/05 A3034 RMK AO1 T00550054
K7W4 180155Z AUTO 19004KT 10SM CLR 06/06 A3034 RMK AO1 T00580056
K7W4 180135Z AUTO 19005KT 10SM CLR 06/05 A3033 RMK AO1 T00590053
K7W4 180115Z AUTO 16003KT 10SM CLR 06/05 A3033 RMK AO1 T00580054
K7W4 180055Z AUTO 16004KT 10SM CLR 06/05 A3032 RMK AO1 T00590053
K7W4 180035Z AUTO 00000KT 10SM CLR 07/06 A3032 RMK AO1 T00670055
K7W4 180015Z AUTO 00000KT 10SM CLR 06/06 A3032 RMK AO1 T00640055
K7W4 172355Z AUTO 00000KT 10SM CLR 07/06 A3032 RMK AO1 T00730058 10164 20073
K7W4 172335Z AUTO 00000KT 10SM CLR 08/04 A3031 RMK AO1 T00790043
K7W4 172315Z AUTO 00000KT 10SM CLR 08/06 A3031 RMK AO1 T00810059
K7W4 172255Z AUTO 00000KT 10SM CLR 09/05 A3031 RMK AO1 T00930053
K7W4 172235Z AUTO 00000KT 10SM CLR 10/06 A3030 RMK AO1 T01010058
K7W4 172215Z AUTO 00000KT 10SM CLR 12/05 A3030 RMK AO1 T01160054
K7W4 172155Z AUTO 00000KT 10SM CLR 13/06 A3030 RMK AO1 T01280061
K7W4 172135Z AUTO 00000KT 10SM CLR 14/04 A3030 RMK AO1 T01410042
K7W4 172115Z AUTO 00000KT 10SM CLR 16/03 A3030 RMK AO1 T01560030
K7W4 172055Z AUTO 00000KT 10SM CLR 16/00 A3030 RMK AO1 T01580003
K7W4 172035Z AUTO 00000KT 10SM CLR 16/00 A3030 RMK AO1 T01611001
K7W4 172015Z AUTO 00000KT 10SM CLR 16/00 A3030 RMK AO1 T01611001
K7W4 171955Z AUTO 00000KT 10SM CLR 16/00 A3031 RMK AO1 T01570001
K7W4 171935Z AUTO 00000KT 10SM CLR 16/00 A3031 RMK AO1 T01561003
K7W4 171915Z AUTO 34003KT 10SM CLR 16/00 A3031 RMK AO1 T01591001
K7W4 171855Z AUTO 28007KT 10SM CLR 16/00 A3031 RMK AO1 T01570001
K7W4 171835Z AUTO 03003KT 10SM CLR 16/00 A3032 RMK AO1 T01560001
K7W4 171815Z AUTO 33005KT 10SM CLR 15/00 A3033 RMK AO1 T01540000
K7W4 171755Z AUTO 33005KT 10SM CLR 15/00 A3033 RMK AO1 T01501001 10153 20080
K7W4 171735Z AUTO 31005KT 10SM CLR 15/00 A3034 RMK AO1 T01460001
K7W4 171715Z AUTO 36003KT 10SM CLR 15/00 A3035 RMK AO1 T01450004
K7W4 171655Z AUTO 05003KT 10SM CLR 14/00 A3036 RMK AO1 T01410002
K7W4 171635Z AUTO 32008KT 10SM CLR 14/01 A3037 RMK AO1 T01380005
K7W4 171615Z AUTO 36006KT 10SM CLR 14/01 A3038 RMK AO1 T01370009
K7W4 171555Z AUTO 36004KT 10SM CLR 13/01 A3038 RMK AO1 T01310013
K7W4 171535Z AUTO 05004KT 10SM CLR 13/01 A3038 RMK AO1 T01280011
K7W4 171515Z AUTO 33005KT 10SM CLR 12/01 A3039 RMK AO1 T01200012
K7W4 171455Z AUTO 35005KT 10SM CLR 12/01 A3039 RMK AO1 T01170014
K7W4 171435Z AUTO 04006KT 10SM CLR 12/02 A3039 RMK AO1 T01150017
K7W4 171415Z AUTO 36005KT 10SM CLR 11/02 A3039 RMK AO1 T01100022
K7W4 171355Z AUTO 34005KT 10SM CLR 11/03 A3039 RMK AO1 T01080029
K7W4 171335Z AUTO 33005KT 10SM CLR 10/04 A3039 RMK AO1 T01020036
K7W4 171315Z AUTO 02005KT 10SM CLR 10/03 A3038 RMK AO1 T00980032
K7W4 171255Z AUTO 34005KT 10SM CLR 09/03 A3038 RMK AO1 T00940034
K7W4 171235Z AUTO 01005KT 10SM CLR 09/03 A3037 RMK AO1 T00880030
K7W4 171215Z AUTO 36005KT 10SM CLR 08/03 A3036 RMK AO1 T00830028
K7W4 171155Z AUTO 34005KT 10SM CLR 08/03 A3035 RMK AO1 T00800027 10107 20076
K7W4 171135Z AUTO 34005KT 10SM CLR 08/03 A3035 RMK AO1 T00770025
K7W4 171115Z AUTO 36004KT 10SM CLR 08/03 A3034 RMK AO1 T00800025
K7W4 171055Z AUTO 36004KT 10SM CLR 08/03 A3034 RMK AO1 T00760030
K7W4 171035Z AUTO 35004KT 10SM CLR 08/03 A3033 RMK AO1 T00800029
K7W4 171015Z AUTO 01005KT 10SM CLR 08/03 A3033 RMK AO1 T00810030
K7W4 170955Z AUTO 34005KT 10SM CLR 08/03 A3032 RMK AO1 T00820028
K7W4 170935Z AUTO 00000KT 10SM CLR 09/03 A3031 RMK AO1 T00850029
K7W4 170915Z AUTO 01006KT 10SM CLR 09/03 A3030 RMK AO1 T00850031
K7W4 170855Z AUTO 34005KT 10SM CLR 09/03 A3029 RMK AO1 T00880031
K7W4 170835Z AUTO 00000KT 10SM CLR 09/03 A3029 RMK AO1 T00910027
K7W4 170815Z AUTO 01004KT 10SM CLR 09/03 A3028 RMK AO1 T00910027
K7W4 170755Z AUTO 01003KT 10SM CLR 10/03 A3028 RMK AO1 T00960026
K7W4 170735Z AUTO 35003KT 10SM CLR 10/03 A3028 RMK AO1 T00990025
K7W4 170715Z AUTO 36005KT 10SM CLR 10/02 A3027 RMK AO1 T01010023
K7W4 170655Z AUTO 35004KT 10SM CLR 10/03 A3027 RMK AO1 T01020028
K7W4 170635Z AUTO 01007KT 310V060 10SM CLR 10/03 A3027 RMK AO1 T01030027
K7W4 170615Z AUTO 34004KT 10SM CLR 11/03 A3027 RMK AO1 T01050025
K7W4 170555Z AUTO 35003KT 10SM CLR 11/02 A3027 RMK AO1 T01070024 10139 20107
K7W4 170535Z AUTO 35004KT 10SM CLR 11/03 A3027 RMK AO1 T01100028
K7W4 170515Z AUTO 01004KT 10SM CLR 11/03 A3027 RMK AO1 T01100032
K7W4 170455Z AUTO 35004KT 10SM CLR 11/03 A3026 RMK AO1 T01120034 402200109
K7W4 170435Z AUTO 35003KT 10SM CLR 12/04 A3026 RMK AO1 T01150035
K7W4 170415Z AUTO 36003KT 10SM CLR 12/03 A3026 RMK AO1 T01150033
K7W4 170355Z AUTO 01003KT 10SM CLR 12/03 A3027 RMK AO1 T01180033
K7W4 170335Z AUTO 01004KT 10SM CLR 12/03 A3026 RMK AO1 T01200033
K7W4 170315Z AUTO 36003KT 10SM CLR 12/03 A3026 RMK AO1 T01230031
K7W4 170255Z AUTO 34003KT 10SM CLR 12/03 A3025 RMK AO1 T01200032
K7W4 170235Z AUTO 00000KT 10SM CLR 12/03 A3025 RMK AO1 T01240027
K7W4 170215Z AUTO 34003KT 10SM CLR 12/03 A3024 RMK AO1 T01210030
K7W4 170155Z AUTO 00000KT 10SM CLR 12/03 A3023 RMK AO1 T01220032
K7W4 170135Z AUTO 33003KT 10SM CLR 13/03 A3023 RMK AO1 T01270030
K7W4 170115Z AUTO 33004KT 10SM CLR 14/02 A3022 RMK AO1 T01350022
K7W4 170055Z AUTO 33005KT 10SM CLR 14/02 A3021 RMK AO1 T01350020
K7W4 170035Z AUTO 33004KT 10SM CLR 14/02 A3020 RMK AO1 T01370022
K7W4 170015Z AUTO 34005KT 10SM CLR 14/03 A3020 RMK AO1 T01390030
K7W4 162355Z AUTO 32005KT 10SM CLR 14/04 A3019 RMK AO1 T01360040 10181 20109
K7W4 162335Z AUTO 00000KT 10SM CLR 11/07 A3017 RMK AO1 T01110066
K7W4 162315Z AUTO 00000KT 10SM CLR 13/05 A3016 RMK AO1 T01290053
K7W4 162255Z AUTO 00000KT 10SM CLR 14/04 A3015 RMK AO1 T01410044
K7W4 162235Z AUTO 31003KT 10SM CLR 15/04 A3015 RMK AO1 T01490040
K7W4 162215Z AUTO 32003KT 10SM CLR 15/05 A3014 RMK AO1 T01530045
K7W4 162155Z AUTO 33003KT 10SM CLR 16/05 A3013 RMK AO1 T01600051
K7W4 162135Z AUTO 32008KT 10SM CLR 17/05 A3013 RMK AO1 T01660049
K7W4 162115Z AUTO 32003KT 10SM CLR 17/06 A3012 RMK AO1 T01670057
K7W4 162055Z AUTO 31003KT 10SM CLR 16/06 A3012 RMK AO1 T01610059
K7W4 162035Z AUTO 30003KT 10SM SCT060 16/06 A3012 RMK AO1 T01560056
K7W4 162015Z AUTO 32006G15KT 280V010 10SM SCT050 17/06 A3012 RMK AO1 T01680056
K7W4 161955Z AUTO 33009G14KT 300V030 10SM SCT050 17/07 A3012 RMK AO1 T01700065
K7W4 161935Z AUTO 30005KT 10SM SCT050 18/07 A3011 RMK AO1 T01810074
K7W4 161915Z AUTO 31006KT 10SM BKN050 17/06 A3011 RMK AO1 T01670061
K7W4 161855Z AUTO 31007G19KT 10SM BKN050 17/06 A3010 RMK AO1 T01700057
K7W4 161835Z AUTO 30006KT 270V040 10SM SCT050 18/06 A3010 RMK AO1 T01760063
K7W4 161815Z AUTO 32010G18KT 260V340 10SM SCT050 17/07 A3010 RMK AO1 T01730067
K7W4 161755Z AUTO 35010G20KT 190V050 10SM BKN048 BKN050 17/07 A3010 RMK AO1 T01740067 10177 20143
K7W4 161735Z AUTO 33006KT 10SM BKN050 17/08 A3010 RMK AO1 T01690081
K7W4 161715Z AUTO 32009KT 290V010 10SM SCT042 OVC050 17/08 A3011 RMK AO1 T01660075
K7W4 161655Z AUTO 34008G15KT 300V030 10SM BKN043 OVC050 17/09 A3011 RMK AO1 T01740086
K7W4 161635Z AUTO 32008G14KT 300V020 10SM BKN042 BKN049 17/09 A3011 RMK AO1 T01680087
K7W4 161615Z AUTO 34008KT 270V040 10SM SCT041 BKN047 17/10 A3011 RMK AO1 T01720095
K7W4 161555Z AUTO 31005KT 10SM SCT041 17/10 A3010 RMK AO1 T01710101